Time;durP1;ratioP1;P1;durP2;ratioP2;P2;SDS_P1;SDS_P2;PMS_P1;PMS_P2;Temp;Humidity;BMP_temperature;BMP_pressure;BME280_temperature;BME280_humidity;BME280_pressure;Samples;Min_cycle;Max_cycle;Signal;HPM_P1;HPM_P2
2021/10/07 00:04:04;;;;;;;19.20;14.50;;;;;;;12.43;79.31;100527.39;229828;1193;140540;-66
2021/10/07 00:09:09;;;;;;;18.70;14.10;;;;;;;12.44;79.43;100531.49;229757;1192;140921;-66
2021/10/07 00:14:14;;;;;;;23.90;14.90;;;;;;;12.44;79.46;100528.59;230008;1192;141375;-66
2021/10/07 00:19:19;;;;;;;20.30;14.20;;;;;;;12.42;79.37;100525.32;229033;1192;139983;-66
2021/10/07 00:24:24;;;;;;;18.80;14.20;;;;;;;12.40;79.45;100531.31;229703;1188;140285;-66
2021/10/07 00:29:46;;;;;;;18.00;14.00;;;;;;;12.41;79.28;100528.20;229714;1192;140518;-65
2021/10/07 00:35:16;;;;;;;21.80;15.20;;;;;;;12.38;79.31;100527.35;229649;1192;140132;-65
2021/10/07 00:40:20;;;;;;;23.20;16.30;;;;;;;12.32;79.10;100528.15;229367;1192;140527;-65
2021/10/07 00:45:24;;;;;;;29.90;15.10;;;;;;;12.29;79.51;100525.60;230327;1192;139712;-67
2021/10/07 00:50:27;;;;;;;29.90;14.80;;;;;;;12.29;79.34;100529.46;231072;1192;142075;-67
2021/10/07 00:55:31;;;;;;;19.70;14.10;;;;;;;12.25;79.29;100531.34;231121;1192;141966;-67
2021/10/07 01:00:34;;;;;;;22.10;15.10;;;;;;;12.28;79.62;100530.92;230763;1192;141948;-66
2021/10/07 01:05:39;;;;;;;21.80;14.90;;;;;;;12.32;79.55;100528.77;230716;1192;140039;-66
2021/10/07 01:10:44;;;;;;;28.20;17.10;;;;;;;12.28;79.30;100532.12;231160;1192;140066;-67
2021/10/07 01:15:48;;;;;;;16.40;12.40;;;;;;;12.31;79.46;100534.42;228874;1192;141160;-66
2021/10/07 01:20:52;;;;;;;17.70;11.90;;;;;;;12.34;79.65;100533.08;229473;1192;140512;-64
2021/10/07 01:25:55;;;;;;;24.90;13.10;;;;;;;12.36;79.54;100529.22;229331;1192;142171;-66
2021/10/07 01:30:59;;;;;;;23.50;14.00;;;;;;;12.36;79.71;100530.66;229132;1193;140896;-65
2021/10/07 01:36:04;;;;;;;18.10;11.40;;;;;;;12.31;79.80;100534.95;229419;1192;140534;-65
2021/10/07 01:41:08;;;;;;;16.00;12.20;;;;;;;12.26;79.38;100537.83;228862;1192;140962;-66
2021/10/07 01:46:12;;;;;;;18.30;13.20;;;;;;;12.20;79.42;100540.55;230838;1192;141475;-65
2021/10/07 01:51:17;;;;;;;25.00;13.80;;;;;;;12.17;79.58;100545.60;229467;1192;141445;-66
2021/10/07 01:56:21;;;;;;;23.60;13.30;;;;;;;12.12;79.60;100548.75;229213;1192;141424;-66
2021/10/07 02:01:24;;;;;;;18.70;11.50;;;;;;;12.06;79.52;100548.77;230163;1192;140045;-66
2021/10/07 02:06:30;;;;;;;16.70;12.00;;;;;;;12.01;79.66;100552.00;229474;1187;142792;-65
2021/10/07 02:11:36;;;;;;;17.80;11.10;;;;;;;11.97;79.60;100556.32;228931;1193;141025;-66
2021/10/07 02:16:41;;;;;;;18.80;10.80;;;;;;;11.99;79.95;100560.74;229379;1192;143173;-66
2021/10/07 02:21:45;;;;;;;17.50;12.40;;;;;;;11.99;79.90;100569.04;229892;1191;141248;-66
2021/10/07 02:26:49;;;;;;;17.80;11.60;;;;;;;11.92;79.79;100575.77;229693;1192;142364;-66
2021/10/07 02:31:53;;;;;;;18.30;11.00;;;;;;;11.82;79.44;100576.20;229290;1192;142355;-66
2021/10/07 02:36:57;;;;;;;18.70;12.20;;;;;;;11.78;79.59;100580.30;231339;1191;141633;-67
2021/10/07 02:42:01;;;;;;;17.40;12.00;;;;;;;11.84;80.09;100579.13;230177;1192;142047;-66
2021/10/07 02:47:05;;;;;;;24.20;12.20;;;;;;;11.92;80.09;100590.23;228926;1192;140604;-66
2021/10/07 02:52:10;;;;;;;22.60;12.60;;;;;;;11.94;80.00;100600.38;230275;1192;140197;-65
2021/10/07 02:57:14;;;;;;;21.00;12.10;;;;;;;11.94;79.68;100600.41;231366;1192;142010;-68
2021/10/07 03:02:19;;;;;;;21.20;12.60;;;;;;;11.96;79.74;100608.86;231230;1192;140795;-67
2021/10/07 03:07:23;;;;;;;21.00;14.10;;;;;;;11.99;79.75;100609.21;231308;1192;139884;-67
2021/10/07 03:12:28;;;;;;;26.20;14.50;;;;;;;12.02;79.87;100613.37;231455;1192;139441;-68
2021/10/07 03:17:32;;;;;;;17.20;12.00;;;;;;;11.99;79.74;100617.71;229555;1192;139681;-65
2021/10/07 03:22:38;;;;;;;18.50;12.00;;;;;;;12.00;79.72;100622.59;230057;1192;140566;-67
2021/10/07 03:27:43;;;;;;;16.80;11.20;;;;;;;12.01;79.65;100625.38;230121;1191;140591;-67
2021/10/07 03:32:47;;;;;;;15.10;12.50;;;;;;;11.99;79.78;100627.70;230145;1192;142418;-66
2021/10/07 03:37:53;;;;;;;18.10;12.50;;;;;;;12.00;79.72;100633.45;230620;1192;140467;-67
2021/10/07 03:42:57;;;;;;;19.80;10.80;;;;;;;12.00;79.75;100639.70;229140;1192;139566;-66
2021/10/07 03:48:00;;;;;;;21.70;12.80;;;;;;;11.97;79.61;100645.81;228949;1192;140087;-67
2021/10/07 03:53:05;;;;;;;20.40;12.00;;;;;;;11.96;79.77;100647.05;229680;1192;140833;-66
2021/10/07 03:58:09;;;;;;;28.60;14.80;;;;;;;11.93;79.55;100654.78;228997;1193;139582;-65
2021/10/07 04:03:14;;;;;;;19.30;14.40;;;;;;;11.85;79.63;100654.83;229625;1192;139662;-66
2021/10/07 04:08:19;;;;;;;14.60;11.70;;;;;;;11.78;79.67;100660.01;229003;1193;141723;-66
2021/10/07 04:13:24;;;;;;;20.60;12.80;;;;;;;11.71;79.48;100663.23;229280;1192;139857;-66
2021/10/07 04:18:28;;;;;;;18.00;13.20;;;;;;;11.64;79.44;100670.74;229409;1192;140360;-66
2021/10/07 04:23:32;;;;;;;20.20;11.30;;;;;;;11.62;79.67;100670.14;228513;1192;141101;-67
2021/10/07 04:28:36;;;;;;;28.40;14.10;;;;;;;11.58;79.74;100677.60;230396;1192;140131;-67
2021/10/07 04:33:39;;;;;;;24.10;15.70;;;;;;;11.59;80.05;100679.61;230052;1192;140708;-67
2021/10/07 04:38:43;;;;;;;25.90;14.00;;;;;;;11.57;79.87;100686.03;229991;1192;140424;-66
2021/10/07 04:43:48;;;;;;;29.00;13.10;;;;;;;11.52;79.57;100688.83;229898;1192;140756;-66
2021/10/07 04:48:54;;;;;;;22.00;12.40;;;;;;;11.45;79.44;100694.90;230941;1192;142043;-66
2021/10/07 04:53:58;;;;;;;28.50;14.00;;;;;;;11.45;79.52;100702.83;230775;1192;140343;-66
2021/10/07 04:59:02;;;;;;;21.00;12.90;;;;;;;11.43;79.64;100715.09;231005;1192;139439;-67
2021/10/07 05:04:05;;;;;;;22.20;12.20;;;;;;;11.44;79.72;100722.11;231166;1192;142139;-67
2021/10/07 05:09:09;;;;;;;19.60;12.90;;;;;;;11.45;79.72;100726.54;231304;1192;141378;-67
2021/10/07 05:14:14;;;;;;;20.10;13.10;;;;;;;11.47;79.71;100731.13;229016;1192;143536;-66
2021/10/07 05:19:19;;;;;;;21.90;13.70;;;;;;;11.49;79.89;100739.73;229832;1192;232752;-67
2021/10/07 05:24:23;;;;;;;20.90;15.10;;;;;;;11.56;80.02;100744.42;230561;1192;140679;-67
2021/10/07 05:29:27;;;;;;;21.40;13.40;;;;;;;11.57;79.75;100751.11;229288;1192;140259;-66
2021/10/07 05:34:31;;;;;;;19.90;13.50;;;;;;;11.52;79.86;100755.16;231131;1192;140370;-66
2021/10/07 05:39:36;;;;;;;18.20;12.80;;;;;;;11.49;79.84;100760.23;228329;1192;140441;-65
2021/10/07 05:44:41;;;;;;;21.00;13.80;;;;;;;11.52;79.98;100770.77;230556;1192;141104;-67
2021/10/07 05:49:46;;;;;;;20.30;11.30;;;;;;;11.51;79.90;100771.15;230433;1192;140465;-66
2021/10/07 05:54:50;;;;;;;22.10;12.90;;;;;;;11.51;79.59;100779.70;230614;1192;139991;-66
2021/10/07 05:59:55;;;;;;;21.60;13.60;;;;;;;11.52;79.81;100785.06;229375;1192;139206;-66
2021/10/07 06:04:59;;;;;;;21.40;14.60;;;;;;;11.54;79.99;100788.39;230831;1192;139194;-65
2021/10/07 06:10:06;;;;;;;23.40;14.10;;;;;;;11.57;79.86;100791.16;229273;1192;141039;-66
2021/10/07 06:15:12;;;;;;;17.80;12.10;;;;;;;11.61;79.87;100790.02;228964;1192;142683;-66
2021/10/07 06:20:22;;;;;;;20.80;13.50;;;;;;;11.66;79.91;100796.80;228615;1192;152394;-64
2021/10/07 06:25:27;;;;;;;19.80;12.40;;;;;;;11.67;79.75;100801.89;229647;1192;140012;-65
2021/10/07 06:30:35;;;;;;;14.60;11.20;;;;;;;11.68;79.88;100807.34;230075;1192;139443;-66
2021/10/07 06:35:40;;;;;;;19.30;12.30;;;;;;;11.67;79.96;100808.05;230173;1191;141677;-66
2021/10/07 06:40:47;;;;;;;15.40;11.20;;;;;;;11.72;79.66;100811.92;229913;1192;139646;-65
2021/10/07 06:45:55;;;;;;;17.80;11.20;;;;;;;11.67;79.45;100814.58;231189;1192;141247;-66
2021/10/07 06:51:02;;;;;;;20.50;11.20;;;;;;;11.63;79.47;100820.03;231080;1192;140593;-66
2021/10/07 06:56:10;;;;;;;12.60;11.10;;;;;;;11.68;79.46;100822.63;231148;1192;140245;-65
2021/10/07 07:01:14;;;;;;;37.20;9.80;;;;;;;11.73;79.22;100826.05;230804;1186;141231;-65
2021/10/07 07:06:24;;;;;;;13.40;9.20;;;;;;;11.77;79.32;100824.45;230060;1192;140105;-64
2021/10/07 07:11:29;;;;;;;21.90;10.60;;;;;;;11.86;79.32;100830.28;229258;1192;140903;-63
2021/10/07 07:16:34;;;;;;;16.00;10.70;;;;;;;12.01;79.52;100829.78;230223;1191;140124;-64
2021/10/07 07:21:40;;;;;;;19.80;12.40;;;;;;;12.21;79.44;100834.03;230242;1192;140562;-65
2021/10/07 07:26:44;;;;;;;14.60;10.80;;;;;;;12.47;78.91;100836.67;231225;1192;140423;-67
2021/10/07 07:31:51;;;;;;;18.20;11.90;;;;;;;12.69;78.33;100845.69;229502;1192;140109;-66
2021/10/07 07:36:55;;;;;;;;;;;;;;;12.80;78.17;100852.57;229958;1190;140401;-66
2021/10/07 07:42:03;;;;;;;15.60;10.00;;;;;;;12.84;77.59;100854.81;230173;1190;126904;-66
2021/10/07 07:47:09;;;;;;;18.50;11.50;;;;;;;12.94;77.33;100861.95;229264;1190;141301;-66
2021/10/07 07:52:14;;;;;;;16.80;12.00;;;;;;;13.01;77.44;100862.75;229244;1190;141967;-64
2021/10/07 07:57:18;;;;;;;12.90;9.10;;;;;;;13.02;77.07;100865.52;229432;1192;140208;-65
2021/10/07 08:02:23;;;;;;;20.30;10.40;;;;;;;13.02;76.78;100867.60;229881;1192;139896;-64
2021/10/07 08:07:27;;;;;;;13.00;9.70;;;;;;;12.99;76.61;100873.03;229351;1192;144005;-64
2021/10/07 08:12:33;;;;;;;18.80;11.00;;;;;;;12.95;76.38;100879.70;229732;1192;139730;-64
2021/10/07 08:17:42;;;;;;;11.90;9.00;;;;;;;13.01;76.21;100885.69;231151;1192;140266;-67
2021/10/07 08:22:48;;;;;;;18.80;10.30;;;;;;;12.99;76.34;100895.10;229959;1192;139635;-65
2021/10/07 08:28:00;;;;;;;20.80;10.20;;;;;;;13.02;76.27;100895.60;229488;1192;151570;-65
2021/10/07 08:33:05;;;;;;;13.60;8.80;;;;;;;13.08;76.23;100891.72;230239;1190;140913;-65
2021/10/07 08:38:12;;;;;;;14.90;10.30;;;;;;;13.05;75.78;100899.12;230777;1192;139200;-65
2021/10/07 08:43:20;;;;;;;12.90;9.70;;;;;;;13.06;75.55;100907.14;228820;1192;140750;-65
2021/10/07 08:48:26;;;;;;;16.00;10.80;;;;;;;13.07;75.53;100907.54;230003;1192;140783;-64
2021/10/07 08:53:34;;;;;;;24.40;11.40;;;;;;;13.07;75.23;100912.40;231078;1192;140879;-67
2021/10/07 08:58:38;;;;;;;13.10;10.80;;;;;;;13.08;75.06;100916.14;229591;1192;142085;-66
2021/10/07 09:03:46;;;;;;;13.60;8.10;;;;;;;12.98;74.99;100918.08;231203;1192;141409;-65
2021/10/07 09:08:50;;;;;;;14.40;10.90;;;;;;;12.93;75.11;100920.39;230946;1192;140273;-65
2021/10/07 09:14:09;;;;;;;18.50;10.30;;;;;;;13.03;75.14;100921.78;230538;1192;141351;-65
2021/10/07 09:19:16;;;;;;;17.10;10.50;;;;;;;13.20;74.49;100930.56;230997;1192;139635;-65
2021/10/07 09:24:33;;;;;;;12.00;10.30;;;;;;;13.24;74.00;100940.95;230634;1192;140732;-64
2021/10/07 09:29:43;;;;;;;20.50;11.00;;;;;;;13.31;73.83;100948.05;229580;1192;139514;-65
2021/10/07 09:34:50;;;;;;;13.90;9.50;;;;;;;13.30;73.75;100946.86;231040;1184;139379;-66
2021/10/07 09:40:11;;;;;;;21.40;8.10;;;;;;;13.32;73.38;100947.48;229017;1192;139074;-67
2021/10/07 09:45:21;;;;;;;14.00;11.30;;;;;;;13.43;73.44;100945.11;230846;1192;140044;-66
2021/10/07 09:50:30;;;;;;;13.70;9.80;;;;;;;13.48;73.12;100953.36;229338;1192;141165;-66
2021/10/07 09:55:39;;;;;;;17.10;9.80;;;;;;;13.48;73.02;100957.06;228857;1192;140177;-66
2021/10/07 10:00:53;;;;;;;15.60;8.30;;;;;;;13.45;72.67;100957.84;228939;1192;141093;-66
2021/10/07 10:05:57;;;;;;;18.40;10.10;;;;;;;13.48;72.86;100963.16;228951;1192;139654;-65
2021/10/07 10:11:02;;;;;;;20.80;10.10;;;;;;;13.50;72.52;100965.11;228608;1192;141529;-66
2021/10/07 10:16:09;;;;;;;14.60;10.30;;;;;;;13.52;72.31;100962.54;229292;1191;141431;-66
2021/10/07 10:21:14;;;;;;;16.40;10.20;;;;;;;13.57;72.26;100967.39;229853;1192;141641;-66
2021/10/07 10:26:22;;;;;;;13.30;8.70;;;;;;;13.57;71.92;100966.43;229337;1191;140927;-66
2021/10/07 10:31:36;;;;;;;22.30;10.40;;;;;;;13.63;71.80;100969.09;229497;1192;141156;-65
2021/10/07 10:36:55;;;;;;;26.00;10.00;;;;;;;13.70;71.86;100971.81;229754;1192;143270;-66
2021/10/07 10:42:08;;;;;;;13.40;9.00;;;;;;;13.71;71.37;100974.40;229934;1192;139324;-67
2021/10/07 10:47:12;;;;;;;15.80;8.20;;;;;;;13.71;71.14;100975.77;230119;1192;140602;-65
2021/10/07 10:52:19;;;;;;;11.60;8.40;;;;;;;13.71;70.86;100979.77;229885;1192;139185;-66
2021/10/07 10:58:02;;;;;;;15.50;8.90;;;;;;;13.72;70.80;100982.59;230894;1192;140396;-66
2021/10/07 11:03:15;;;;;;;23.40;10.70;;;;;;;13.79;71.00;100983.67;229739;1192;141605;-65
2021/10/07 11:08:21;;;;;;;17.70;9.20;;;;;;;13.90;70.87;100993.13;231155;1192;140250;-66
2021/10/07 11:13:47;;;;;;;19.00;11.40;;;;;;;13.97;70.45;100999.84;230932;1192;139779;-64
2021/10/07 11:18:52;;;;;;;10.90;8.50;;;;;;;14.06;70.65;101000.87;229713;1192;139299;-65
2021/10/07 11:23:56;;;;;;;17.10;9.90;;;;;;;14.20;70.64;101001.63;230932;1192;139952;-66
2021/10/07 11:29:09;;;;;;;17.60;13.00;;;;;;;14.33;70.22;100996.14;230246;1192;139810;-67
2021/10/07 11:34:13;;;;;;;20.90;12.20;;;;;;;14.44;69.80;100998.74;229782;1192;141114;-67
2021/10/07 11:39:17;;;;;;;18.80;10.70;;;;;;;14.52;69.67;100998.41;231153;1191;139011;-66
2021/10/07 11:44:21;;;;;;;12.00;8.80;;;;;;;14.59;69.61;100997.80;229121;1192;141779;-65
2021/10/07 11:49:28;;;;;;;22.60;10.50;;;;;;;14.61;69.24;100997.97;229236;1192;141152;-66
2021/10/07 11:54:39;;;;;;;27.30;12.60;;;;;;;14.57;68.97;100996.71;229649;1192;141409;-66
2021/10/07 11:59:44;;;;;;;15.50;11.10;;;;;;;14.41;68.61;100990.02;228673;1192;140476;-66
2021/10/07 12:04:48;;;;;;;14.80;10.50;;;;;;;14.32;68.79;100990.38;229580;1190;140098;-67
2021/10/07 12:09:52;;;;;;;21.40;12.60;;;;;;;14.40;69.20;100990.79;229522;1190;141504;-65
2021/10/07 12:15:15;;;;;;;16.90;11.90;;;;;;;14.52;69.20;100987.54;229351;1190;139417;-66
2021/10/07 12:20:20;;;;;;;20.40;11.90;;;;;;;14.52;68.88;100986.50;229688;1190;161106;-66
2021/10/07 12:25:24;;;;;;;19.20;11.70;;;;;;;14.52;68.93;100991.74;229949;1190;140088;-66
2021/10/07 12:30:29;;;;;;;20.60;13.00;;;;;;;14.52;68.49;100994.64;229168;1190;140152;-67
2021/10/07 12:35:36;;;;;;;;;;;;;;;14.53;68.17;100998.13;229774;1190;139954;-66
2021/10/07 12:40:50;;;;;;;20.60;12.40;;;;;;;14.52;68.14;100995.88;230398;1192;125991;-66
2021/10/07 12:46:03;;;;;;;21.40;11.50;;;;;;;14.53;68.24;100999.98;229180;1192;140836;-66
2021/10/07 12:51:15;;;;;;;22.80;11.30;;;;;;;14.47;67.79;100997.59;229034;1192;140039;-65
2021/10/07 12:56:26;;;;;;;18.90;9.20;;;;;;;14.46;67.77;100996.81;229513;1192;139997;-65
2021/10/07 13:01:48;;;;;;;18.60;10.50;;;;;;;14.53;67.57;100992.39;230028;1192;140209;-65
2021/10/07 13:06:56;;;;;;;14.20;10.60;;;;;;;14.66;67.37;100993.41;231106;1192;140075;-65
2021/10/07 13:12:00;;;;;;;14.90;10.50;;;;;;;14.73;66.98;100993.71;231314;1192;140405;-65
2021/10/07 13:17:03;;;;;;;17.20;11.10;;;;;;;14.82;67.04;100997.70;231028;1192;140285;-66
2021/10/07 13:22:07;;;;;;;13.90;10.70;;;;;;;14.88;66.54;100999.21;231067;1192;140086;-68
2021/10/07 13:27:12;;;;;;;14.20;9.90;;;;;;;14.97;66.53;100998.73;231175;1192;140063;-65
2021/10/07 13:32:17;;;;;;;19.70;11.10;;;;;;;15.05;66.39;101004.44;230266;1192;140114;-66
2021/10/07 13:37:23;;;;;;;16.50;11.80;;;;;;;15.15;66.11;101010.10;229128;1192;140189;-65
2021/10/07 13:42:27;;;;;;;16.20;12.30;;;;;;;15.15;66.15;101010.27;229967;1190;140678;-65
2021/10/07 13:47:32;;;;;;;16.10;9.70;;;;;;;15.15;66.24;101019.32;230433;1190;140090;-65
2021/10/07 13:52:37;;;;;;;14.60;9.70;;;;;;;15.05;65.82;101027.46;229294;1192;139024;-65
2021/10/07 13:57:41;;;;;;;10.50;8.80;;;;;;;14.94;65.83;101028.73;229877;1192;139079;-64
2021/10/07 14:02:45;;;;;;;17.20;9.70;;;;;;;14.81;65.74;101028.07;229757;1192;139023;-66
2021/10/07 14:08:17;;;;;;;15.70;10.60;;;;;;;14.76;65.84;101032.45;229100;1192;140244;-65
2021/10/07 14:13:26;;;;;;;23.30;10.20;;;;;;;14.71;66.45;101043.17;229471;1193;142253;-66
2021/10/07 14:18:32;;;;;;;12.70;9.60;;;;;;;14.62;66.32;101045.11;229430;1192;139548;-66
2021/10/07 14:23:37;;;;;;;11.50;8.70;;;;;;;14.55;66.42;101046.36;230025;1192;140343;-65
2021/10/07 14:28:45;;;;;;;13.70;10.30;;;;;;;14.49;66.52;101048.67;229492;1192;142372;-65
2021/10/07 14:33:52;;;;;;;18.70;9.50;;;;;;;14.41;66.40;101051.67;229359;1192;140130;-66
2021/10/07 14:38:56;;;;;;;15.30;11.30;;;;;;;14.39;66.58;101054.14;229345;1192;226981;-66
2021/10/07 14:44:03;;;;;;;17.20;11.10;;;;;;;14.35;66.94;101055.16;229821;1191;140673;-69
2021/10/07 14:49:14;;;;;;;17.50;11.60;;;;;;;14.32;67.46;101059.41;230198;1192;142196;-71
2021/10/07 14:54:18;;;;;;;16.60;10.80;;;;;;;14.28;67.94;101061.98;229744;1192;139882;-70
2021/10/07 14:59:23;;;;;;;12.90;7.60;;;;;;;14.23;67.81;101060.55;229650;1192;141267;-70
2021/10/07 15:04:29;;;;;;;16.10;9.90;;;;;;;14.22;68.10;101068.73;229451;1192;140590;-68
2021/10/07 15:09:34;;;;;;;13.90;10.00;;;;;;;14.19;68.63;101070.42;230112;1192;140319;-68
2021/10/07 15:14:38;;;;;;;15.70;10.60;;;;;;;14.16;68.88;101078.50;230799;1192;139946;-69
2021/10/07 15:19:43;;;;;;;15.30;9.80;;;;;;;14.11;68.79;101079.83;230640;1192;138979;-68
2021/10/07 15:24:47;;;;;;;19.50;9.40;;;;;;;14.05;68.91;101085.04;231130;1192;140089;-68
2021/10/07 15:29:54;;;;;;;16.70;10.40;;;;;;;13.98;68.65;101086.77;230788;1192;139884;-68
2021/10/07 15:34:59;;;;;;;18.20;10.20;;;;;;;13.87;68.86;101089.07;231221;1190;139932;-68
2021/10/07 15:40:04;;;;;;;18.10;10.00;;;;;;;13.72;68.88;101098.60;230134;1190;139493;-67
2021/10/07 15:45:11;;;;;;;13.00;9.80;;;;;;;13.58;69.05;101103.80;230507;1192;140460;-67
2021/10/07 15:50:22;;;;;;;12.40;7.10;;;;;;;13.42;69.31;101107.76;230149;1190;140883;-67
2021/10/07 15:55:26;;;;;;;16.10;10.00;;;;;;;13.26;69.21;101110.77;229789;1190;140790;-69
2021/10/07 16:00:32;;;;;;;12.90;9.00;;;;;;;13.09;69.49;101119.29;229378;1190;139723;-68
2021/10/07 16:05:37;;;;;;;14.60;10.00;;;;;;;12.90;69.57;101127.20;229804;1190;140884;-67
2021/10/07 16:10:42;;;;;;;15.80;10.40;;;;;;;12.68;69.78;101134.54;229306;1192;139417;-67
2021/10/07 16:15:46;;;;;;;19.70;10.00;;;;;;;12.52;69.88;101144.73;229602;1192;221276;-69
2021/10/07 16:20:57;;;;;;;15.40;10.90;;;;;;;12.37;70.03;101150.83;229687;1192;139531;-68
2021/10/07 16:26:04;;;;;;;11.70;10.50;;;;;;;12.17;70.06;101158.27;229613;1191;141514;-68
2021/10/07 16:31:10;;;;;;;17.00;10.30;;;;;;;12.02;70.35;101166.31;229996;1192;142627;-69
2021/10/07 16:36:15;;;;;;;14.00;10.80;;;;;;;11.89;70.31;101172.23;229669;1190;141878;-68
2021/10/07 16:41:23;;;;;;;21.20;11.90;;;;;;;11.73;70.36;101177.19;229411;1192;140469;-68
2021/10/07 16:46:28;;;;;;;20.90;14.40;;;;;;;11.55;70.55;101179.49;229517;1192;140489;-68
2021/10/07 16:51:33;;;;;;;28.20;16.90;;;;;;;11.39;70.73;101188.77;230504;1191;140256;-67
2021/10/07 16:56:38;;;;;;;30.80;18.20;;;;;;;11.29;70.95;101199.33;229325;1193;140259;-68
2021/10/07 17:01:42;;;;;;;34.40;25.20;;;;;;;11.19;71.22;101203.91;229382;1191;209380;-67
2021/10/07 17:06:48;;;;;;;34.60;21.40;;;;;;;11.06;71.24;101207.48;231257;1191;139392;-67
2021/10/07 17:11:58;;;;;;;26.50;17.90;;;;;;;10.96;71.26;101211.41;230510;1192;140321;-68
2021/10/07 17:17:08;;;;;;;25.30;18.90;;;;;;;10.87;71.14;101216.55;231020;1192;140190;-69
2021/10/07 17:22:14;;;;;;;27.30;15.80;;;;;;;10.74;71.34;101222.73;230851;1192;139660;-68
2021/10/07 17:27:20;;;;;;;23.50;15.10;;;;;;;10.57;71.24;101228.95;231243;1192;139477;-68
2021/10/07 17:32:26;;;;;;;24.30;12.80;;;;;;;10.44;71.37;101234.34;230246;1191;140373;-68
2021/10/07 17:37:32;;;;;;;25.10;15.20;;;;;;;10.40;71.52;101239.70;229651;1190;140817;-67
2021/10/07 17:42:39;;;;;;;26.70;15.80;;;;;;;10.32;71.57;101241.27;229931;1190;139938;-69
2021/10/07 17:47:44;;;;;;;27.20;16.10;;;;;;;10.21;71.92;101248.89;229105;1192;141219;-67
2021/10/07 17:53:02;;;;;;;23.90;13.40;;;;;;;10.09;71.82;101249.60;230048;1192;141251;-69
2021/10/07 17:58:07;;;;;;;27.70;14.40;;;;;;;10.03;71.99;101250.88;229087;1193;140268;-67
2021/10/07 18:03:13;;;;;;;23.30;14.50;;;;;;;9.93;72.22;101249.11;230429;1190;139455;-69
2021/10/07 18:08:18;;;;;;;27.70;15.70;;;;;;;9.79;72.55;101248.88;229574;1191;140936;-67
2021/10/07 18:13:23;;;;;;;24.80;14.40;;;;;;;9.65;72.22;101251.89;229198;1190;139407;-67
2021/10/07 18:18:29;;;;;;;26.30;16.50;;;;;;;9.54;72.24;101249.52;230112;1192;140992;-68
2021/10/07 18:23:35;;;;;;;30.90;18.30;;;;;;;9.44;72.65;101250.30;229977;1190;141555;-68
2021/10/07 18:28:40;;;;;;;28.70;17.50;;;;;;;9.35;72.69;101251.69;229801;1190;140472;-68
2021/10/07 18:33:47;;;;;;;21.10;15.00;;;;;;;9.27;72.98;101256.34;229411;1190;140622;-67
2021/10/07 18:38:53;;;;;;;23.70;16.90;;;;;;;9.21;72.95;101254.43;229522;1192;141710;-68
2021/10/07 18:43:58;;;;;;;28.30;17.50;;;;;;;9.08;73.03;101256.98;230232;1192;140586;-67
2021/10/07 18:49:04;;;;;;;26.40;15.60;;;;;;;8.92;72.92;101260.09;229799;1192;139734;-68
2021/10/07 18:54:10;;;;;;;25.20;17.20;;;;;;;8.70;72.90;101256.71;230525;1192;139579;-67
2021/10/07 18:59:14;;;;;;;31.10;17.30;;;;;;;8.55;72.95;101257.54;230476;1192;140293;-68
2021/10/07 19:04:20;;;;;;;39.60;19.10;;;;;;;8.51;73.28;101253.34;231059;1192;139297;-68
2021/10/07 19:09:25;;;;;;;31.70;19.40;;;;;;;8.50;73.11;101255.68;231304;1190;139891;-68
2021/10/07 19:14:30;;;;;;;40.00;20.40;;;;;;;8.46;73.25;101256.58;229731;1193;141110;-67
2021/10/07 19:19:38;;;;;;;31.00;18.40;;;;;;;8.42;73.43;101255.86;230143;1192;141192;-68
2021/10/07 19:24:44;;;;;;;32.70;20.70;;;;;;;8.39;73.26;101253.49;230248;1193;141016;-68
2021/10/07 19:29:49;;;;;;;36.10;19.50;;;;;;;8.32;73.54;101252.56;229584;1192;141487;-67
2021/10/07 19:34:55;;;;;;;35.30;19.90;;;;;;;8.23;73.42;101251.52;229666;1192;141077;-67
2021/10/07 19:40:02;;;;;;;23.20;15.30;;;;;;;8.16;73.67;101255.42;229730;1192;141136;-68
2021/10/07 19:45:09;;;;;;;34.50;19.10;;;;;;;8.14;73.59;101252.52;230059;1192;140746;-67
2021/10/07 19:50:15;;;;;;;27.30;16.70;;;;;;;8.07;73.90;101252.73;229993;1191;139913;-68
2021/10/07 19:55:22;;;;;;;23.30;15.00;;;;;;;8.01;73.75;101266.14;229626;1192;139446;-68
2021/10/07 20:00:27;;;;;;;28.80;14.00;;;;;;;7.93;73.85;101266.16;229601;1192;139831;-67
2021/10/07 20:05:33;;;;;;;23.80;14.50;;;;;;;7.85;73.53;101263.19;229294;1192;140289;-66
2021/10/07 20:10:38;;;;;;;26.00;17.10;;;;;;;7.77;73.90;101260.72;229531;1192;140143;-67
2021/10/07 20:15:44;;;;;;;30.70;18.40;;;;;;;7.67;73.51;101263.17;228681;1192;139953;-67
2021/10/07 20:20:49;;;;;;;33.70;18.30;;;;;;;7.53;73.95;101258.11;229297;1192;140221;-67
2021/10/07 20:25:54;;;;;;;33.30;16.60;;;;;;;7.41;73.92;101263.36;229705;1184;139371;-65
2021/10/07 20:31:01;;;;;;;33.40;18.10;;;;;;;7.34;73.96;101263.60;229201;1192;139896;-68
2021/10/07 20:36:23;;;;;;;27.90;18.20;;;;;;;7.24;74.04;101262.36;228928;1192;139268;-67
2021/10/07 20:41:29;;;;;;;26.70;16.20;;;;;;;7.20;74.30;101264.02;229186;1192;139104;-68
2021/10/07 20:46:34;;;;;;;27.80;15.30;;;;;;;7.14;74.24;101264.86;230096;1192;141256;-67
2021/10/07 20:51:39;;;;;;;24.70;14.30;;;;;;;7.05;74.04;101266.60;229937;1192;139187;-66
2021/10/07 20:56:43;;;;;;;23.70;13.50;;;;;;;6.99;74.41;101272.91;230677;1191;139831;-67
2021/10/07 21:01:47;;;;;;;29.20;18.00;;;;;;;7.00;74.50;101272.48;229732;1192;139605;-67
2021/10/07 21:06:51;;;;;;;26.00;15.80;;;;;;;7.00;74.69;101272.15;230786;1192;139756;-66
2021/10/07 21:11:56;;;;;;;31.90;16.40;;;;;;;7.03;74.79;101273.39;231217;1192;140313;-67
2021/10/07 21:17:01;;;;;;;26.90;17.10;;;;;;;7.02;74.28;101275.93;231266;1191;139956;-67
2021/10/07 21:22:05;;;;;;;32.50;16.00;;;;;;;6.97;74.52;101285.48;231371;1192;141443;-66
2021/10/07 21:27:12;;;;;;;24.20;14.90;;;;;;;6.96;74.84;101289.86;230614;1192;138947;-66
2021/10/07 21:32:17;;;;;;;28.60;15.10;;;;;;;6.96;74.12;101294.37;229430;1191;140076;-65
2021/10/07 21:37:21;;;;;;;24.90;16.50;;;;;;;6.89;74.15;101294.56;229821;1192;139697;-65
2021/10/07 21:42:26;;;;;;;36.20;18.60;;;;;;;6.81;74.92;101292.99;230414;1192;139794;-66
2021/10/07 21:47:30;;;;;;;30.80;15.70;;;;;;;6.75;75.04;101298.69;229507;1192;138990;-67
2021/10/07 21:52:35;;;;;;;25.70;15.90;;;;;;;6.70;74.77;101304.48;229285;1192;140092;-66
2021/10/07 21:57:39;;;;;;;34.20;16.30;;;;;;;6.63;75.19;101301.63;229220;1192;139316;-66
2021/10/07 22:02:45;;;;;;;28.80;15.30;;;;;;;6.50;74.94;101300.97;229093;1192;139333;-66
2021/10/07 22:07:50;;;;;;;24.90;15.50;;;;;;;6.31;74.92;101301.25;228809;1193;140015;-66
2021/10/07 22:12:55;;;;;;;28.80;15.80;;;;;;;6.15;74.70;101306.40;229849;1192;139050;-66
2021/10/07 22:18:01;;;;;;;27.40;16.60;;;;;;;6.05;74.68;101300.37;228833;1192;139718;-66
2021/10/07 22:23:07;;;;;;;29.40;16.30;;;;;;;6.02;75.00;101301.52;228927;1193;139665;-67
2021/10/07 22:28:12;;;;;;;30.20;15.70;;;;;;;5.94;74.93;101304.86;229121;1192;141309;-64
2021/10/07 22:33:16;;;;;;;25.20;14.50;;;;;;;5.83;75.12;101310.42;229118;1193;141023;-66
2021/10/07 22:38:20;;;;;;;27.20;16.90;;;;;;;5.74;75.47;101312.58;230242;1192;139688;-66
2021/10/07 22:43:24;;;;;;;23.40;15.50;;;;;;;5.69;75.20;101313.63;229410;1192;140190;-65
2021/10/07 22:48:28;;;;;;;26.10;13.50;;;;;;;5.65;75.42;101317.40;230520;1192;141085;-66